sensor_id;sensor_type;location;lat;lon;timestamp;P1;durP1;ratioP1;P2;durP2;ratioP2
23242;SDS011;11790;49.578;11.214;2022-07-18T00:00:13;1.73;;;0.90;;
23242;SDS011;11790;49.578;11.214;2022-07-18T00:05:13;2.25;;;1.00;;
23242;SDS011;11790;49.578;11.214;2022-07-18T00:10:13;6.10;;;1.33;;
23242;SDS011;11790;49.578;11.214;2022-07-18T00:15:14;1.27;;;0.80;;
23242;SDS011;11790;49.578;11.214;2022-07-18T00:20:14;2.33;;;1.10;;
23242;SDS011;11790;49.578;11.214;2022-07-18T00:25:14;1.48;;;0.98;;
23242;SDS011;11790;49.578;11.214;2022-07-18T00:30:15;1.70;;;0.90;;
23242;SDS011;11790;49.578;11.214;2022-07-18T00:35:15;1.65;;;0.98;;
23242;SDS011;11790;49.578;11.214;2022-07-18T00:40:15;2.35;;;1.10;;
23242;SDS011;11790;49.578;11.214;2022-07-18T00:45:16;2.30;;;0.90;;
23242;SDS011;11790;49.578;11.214;2022-07-18T00:50:16;2.67;;;0.95;;
23242;SDS011;11790;49.578;11.214;2022-07-18T00:55:16;1.93;;;1.03;;
23242;SDS011;11790;49.578;11.214;2022-07-18T01:00:16;2.90;;;1.20;;
23242;SDS011;11790;49.578;11.214;2022-07-18T01:05:35;2.33;;;1.40;;
23242;SDS011;11790;49.578;11.214;2022-07-18T01:10:36;1.50;;;1.08;;
23242;SDS011;11790;49.578;11.214;2022-07-18T01:15:36;2.85;;;1.17;;
23242;SDS011;11790;49.578;11.214;2022-07-18T01:20:36;2.17;;;1.10;;
23242;SDS011;11790;49.578;11.214;2022-07-18T01:25:36;1.88;;;0.93;;
23242;SDS011;11790;49.578;11.214;2022-07-18T01:30:37;3.17;;;1.00;;
23242;SDS011;11790;49.578;11.214;2022-07-18T01:35:37;1.67;;;0.98;;
23242;SDS011;11790;49.578;11.214;2022-07-18T01:40:37;1.30;;;1.00;;
23242;SDS011;11790;49.578;11.214;2022-07-18T01:45:38;1.73;;;1.20;;
23242;SDS011;11790;49.578;11.214;2022-07-18T01:50:39;2.35;;;1.20;;
23242;SDS011;11790;49.578;11.214;2022-07-18T01:55:39;1.73;;;1.00;;
23242;SDS011;11790;49.578;11.214;2022-07-18T02:00:39;1.83;;;1.15;;
23242;SDS011;11790;49.578;11.214;2022-07-18T02:05:39;1.60;;;0.95;;
23242;SDS011;11790;49.578;11.214;2022-07-18T02:10:40;2.53;;;1.10;;
23242;SDS011;11790;49.578;11.214;2022-07-18T02:15:40;2.77;;;1.10;;
23242;SDS011;11790;49.578;11.214;2022-07-18T02:20:40;1.75;;;1.00;;
23242;SDS011;11790;49.578;11.214;2022-07-18T02:25:41;2.40;;;1.08;;
23242;SDS011;11790;49.578;11.214;2022-07-18T02:30:41;4.15;;;1.35;;
23242;SDS011;11790;49.578;11.214;2022-07-18T02:35:41;2.90;;;1.08;;
23242;SDS011;11790;49.578;11.214;2022-07-18T02:40:42;2.30;;;1.10;;
23242;SDS011;11790;49.578;11.214;2022-07-18T02:45:42;2.05;;;1.10;;
23242;SDS011;11790;49.578;11.214;2022-07-18T02:50:42;2.05;;;1.10;;
23242;SDS011;11790;49.578;11.214;2022-07-18T02:55:42;4.13;;;1.10;;
23242;SDS011;11790;49.578;11.214;2022-07-18T03:00:43;1.15;;;0.90;;
23242;SDS011;11790;49.578;11.214;2022-07-18T03:05:43;1.75;;;1.10;;
23242;SDS011;11790;49.578;11.214;2022-07-18T03:10:43;3.15;;;1.00;;
23242;SDS011;11790;49.578;11.214;2022-07-18T03:15:43;2.45;;;1.00;;
23242;SDS011;11790;49.578;11.214;2022-07-18T03:20:44;2.88;;;1.08;;
23242;SDS011;11790;49.578;11.214;2022-07-18T03:25:44;2.00;;;1.08;;
23242;SDS011;11790;49.578;11.214;2022-07-18T03:30:46;2.25;;;1.17;;
23242;SDS011;11790;49.578;11.214;2022-07-18T03:35:46;4.03;;;0.98;;
23242;SDS011;11790;49.578;11.214;2022-07-18T03:40:46;2.58;;;1.30;;
23242;SDS011;11790;49.578;11.214;2022-07-18T03:45:47;2.97;;;1.52;;
23242;SDS011;11790;49.578;11.214;2022-07-18T03:50:47;1.55;;;1.13;;
23242;SDS011;11790;49.578;11.214;2022-07-18T03:55:47;2.75;;;1.10;;
23242;SDS011;11790;49.578;11.214;2022-07-18T04:00:47;2.83;;;1.27;;
23242;SDS011;11790;49.578;11.214;2022-07-18T04:05:48;4.90;;;2.22;;
23242;SDS011;11790;49.578;11.214;2022-07-18T04:10:48;1.98;;;1.25;;
23242;SDS011;11790;49.578;11.214;2022-07-18T04:15:49;2.63;;;1.40;;
23242;SDS011;11790;49.578;11.214;2022-07-18T04:20:49;3.15;;;1.50;;
23242;SDS011;11790;49.578;11.214;2022-07-18T04:25:49;3.92;;;1.48;;
23242;SDS011;11790;49.578;11.214;2022-07-18T04:30:49;3.22;;;1.70;;
23242;SDS011;11790;49.578;11.214;2022-07-18T04:35:50;2.20;;;1.58;;
23242;SDS011;11790;49.578;11.214;2022-07-18T04:40:50;1.57;;;1.30;;
23242;SDS011;11790;49.578;11.214;2022-07-18T04:45:50;9.93;;;1.70;;
23242;SDS011;11790;49.578;11.214;2022-07-18T04:50:50;6.63;;;1.55;;
23242;SDS011;11790;49.578;11.214;2022-07-18T04:55:51;5.75;;;1.30;;
23242;SDS011;11790;49.578;11.214;2022-07-18T05:00:51;3.75;;;1.10;;
23242;SDS011;11790;49.578;11.214;2022-07-18T05:05:51;2.72;;;1.27;;
23242;SDS011;11790;49.578;11.214;2022-07-18T05:10:51;3.63;;;1.27;;
23242;SDS011;11790;49.578;11.214;2022-07-18T05:15:52;5.53;;;1.40;;
23242;SDS011;11790;49.578;11.214;2022-07-18T05:20:52;2.13;;;1.50;;
23242;SDS011;11790;49.578;11.214;2022-07-18T05:25:52;4.70;;;1.20;;
23242;SDS011;11790;49.578;11.214;2022-07-18T05:30:52;3.30;;;1.00;;
23242;SDS011;11790;49.578;11.214;2022-07-18T05:35:54;2.70;;;1.50;;
23242;SDS011;11790;49.578;11.214;2022-07-18T05:40:54;10.02;;;1.50;;
23242;SDS011;11790;49.578;11.214;2022-07-18T05:45:54;4.75;;;1.30;;
23242;SDS011;11790;49.578;11.214;2022-07-18T05:50:55;2.13;;;1.23;;
23242;SDS011;11790;49.578;11.214;2022-07-18T05:55:55;3.80;;;1.30;;
23242;SDS011;11790;49.578;11.214;2022-07-18T06:00:55;3.03;;;1.40;;
23242;SDS011;11790;49.578;11.214;2022-07-18T06:05:55;2.63;;;1.20;;
23242;SDS011;11790;49.578;11.214;2022-07-18T06:10:56;3.83;;;1.20;;
23242;SDS011;11790;49.578;11.214;2022-07-18T06:15:56;3.50;;;1.20;;
23242;SDS011;11790;49.578;11.214;2022-07-18T06:20:56;4.65;;;1.25;;
23242;SDS011;11790;49.578;11.214;2022-07-18T06:25:57;5.30;;;1.42;;
23242;SDS011;11790;49.578;11.214;2022-07-18T06:30:57;2.38;;;1.02;;
23242;SDS011;11790;49.578;11.214;2022-07-18T06:35:57;2.35;;;1.00;;
23242;SDS011;11790;49.578;11.214;2022-07-18T06:40:58;1.58;;;0.88;;
23242;SDS011;11790;49.578;11.214;2022-07-18T06:45:58;2.22;;;1.08;;
23242;SDS011;11790;49.578;11.214;2022-07-18T06:50:59;1.43;;;0.80;;
23242;SDS011;11790;49.578;11.214;2022-07-18T06:56:00;3.10;;;1.17;;
23242;SDS011;11790;49.578;11.214;2022-07-18T07:01:02;7.25;;;1.30;;
23242;SDS011;11790;49.578;11.214;2022-07-18T07:06:03;1.27;;;1.00;;
23242;SDS011;11790;49.578;11.214;2022-07-18T07:11:03;1.50;;;0.95;;
23242;SDS011;11790;49.578;11.214;2022-07-18T07:16:03;2.67;;;1.10;;
23242;SDS011;11790;49.578;11.214;2022-07-18T07:21:05;1.23;;;0.97;;
23242;SDS011;11790;49.578;11.214;2022-07-18T07:26:05;1.98;;;1.20;;
23242;SDS011;11790;49.578;11.214;2022-07-18T07:31:05;3.20;;;1.17;;
23242;SDS011;11790;49.578;11.214;2022-07-18T07:36:06;3.20;;;1.03;;
23242;SDS011;11790;49.578;11.214;2022-07-18T07:41:06;3.73;;;1.10;;
23242;SDS011;11790;49.578;11.214;2022-07-18T07:46:07;2.00;;;1.27;;
23242;SDS011;11790;49.578;11.214;2022-07-18T07:51:07;5.30;;;1.42;;
23242;SDS011;11790;49.578;11.214;2022-07-18T07:56:07;2.83;;;0.82;;
23242;SDS011;11790;49.578;11.214;2022-07-18T08:01:07;2.63;;;1.00;;
23242;SDS011;11790;49.578;11.214;2022-07-18T08:06:07;2.70;;;1.35;;
23242;SDS011;11790;49.578;11.214;2022-07-18T08:11:08;2.25;;;1.05;;
23242;SDS011;11790;49.578;11.214;2022-07-18T08:16:08;1.55;;;1.10;;
23242;SDS011;11790;49.578;11.214;2022-07-18T08:21:08;8.15;;;1.40;;
23242;SDS011;11790;49.578;11.214;2022-07-18T08:26:09;2.53;;;1.00;;
23242;SDS011;11790;49.578;11.214;2022-07-18T08:31:09;5.95;;;1.30;;
23242;SDS011;11790;49.578;11.214;2022-07-18T08:36:09;2.72;;;1.17;;
23242;SDS011;11790;49.578;11.214;2022-07-18T08:41:10;2.00;;;1.08;;
23242;SDS011;11790;49.578;11.214;2022-07-18T08:46:10;1.93;;;0.97;;
23242;SDS011;11790;49.578;11.214;2022-07-18T08:51:11;3.70;;;1.00;;
23242;SDS011;11790;49.578;11.214;2022-07-18T08:56:11;2.58;;;1.10;;
23242;SDS011;11790;49.578;11.214;2022-07-18T09:01:12;1.25;;;0.90;;
23242;SDS011;11790;49.578;11.214;2022-07-18T09:06:13;1.93;;;0.90;;
23242;SDS011;11790;49.578;11.214;2022-07-18T09:11:13;2.45;;;0.82;;
23242;SDS011;11790;49.578;11.214;2022-07-18T09:16:14;1.42;;;0.85;;
23242;SDS011;11790;49.578;11.214;2022-07-18T09:21:18;3.42;;;1.00;;
23242;SDS011;11790;49.578;11.214;2022-07-18T09:31:38;4.97;;;1.02;;
23242;SDS011;11790;49.578;11.214;2022-07-18T09:36:53;1.35;;;1.00;;
23242;SDS011;11790;49.578;11.214;2022-07-18T09:41:53;1.20;;;0.90;;
23242;SDS011;11790;49.578;11.214;2022-07-18T09:47:03;2.50;;;0.70;;
23242;SDS011;11790;49.578;11.214;2022-07-18T09:52:05;1.02;;;0.63;;
23242;SDS011;11790;49.578;11.214;2022-07-18T09:57:06;1.02;;;0.70;;
23242;SDS011;11790;49.578;11.214;2022-07-18T10:02:06;1.90;;;0.70;;
23242;SDS011;11790;49.578;11.214;2022-07-18T10:07:06;3.13;;;0.68;;
23242;SDS011;11790;49.578;11.214;2022-07-18T10:12:07;1.20;;;0.67;;
23242;SDS011;11790;49.578;11.214;2022-07-18T10:17:07;1.08;;;0.70;;
23242;SDS011;11790;49.578;11.214;2022-07-18T10:22:08;1.35;;;0.77;;
23242;SDS011;11790;49.578;11.214;2022-07-18T10:27:12;2.42;;;0.70;;
23242;SDS011;11790;49.578;11.214;2022-07-18T10:32:12;2.63;;;0.63;;
23242;SDS011;11790;49.578;11.214;2022-07-18T10:37:12;1.58;;;0.70;;
23242;SDS011;11790;49.578;11.214;2022-07-18T10:47:13;1.65;;;0.80;;
23242;SDS011;11790;49.578;11.214;2022-07-18T10:57:37;1.20;;;0.70;;
23242;SDS011;11790;49.578;11.214;2022-07-18T11:02:39;5.00;;;1.85;;
23242;SDS011;11790;49.578;11.214;2022-07-18T11:07:39;4.97;;;0.70;;
23242;SDS011;11790;49.578;11.214;2022-07-18T11:18:19;3.83;;;0.70;;
23242;SDS011;11790;49.578;11.214;2022-07-18T11:23:20;1.25;;;0.80;;
23242;SDS011;11790;49.578;11.214;2022-07-18T11:28:20;3.08;;;0.70;;
23242;SDS011;11790;49.578;11.214;2022-07-18T11:33:22;2.15;;;0.85;;
23242;SDS011;11790;49.578;11.214;2022-07-18T11:38:22;1.67;;;0.57;;
23242;SDS011;11790;49.578;11.214;2022-07-18T11:43:24;1.30;;;0.60;;
23242;SDS011;11790;49.578;11.214;2022-07-18T11:48:24;2.08;;;0.80;;
23242;SDS011;11790;49.578;11.214;2022-07-18T11:53:25;2.05;;;0.77;;
23242;SDS011;11790;49.578;11.214;2022-07-18T11:58:25;2.42;;;0.82;;
23242;SDS011;11790;49.578;11.214;2022-07-18T12:03:25;1.95;;;0.90;;
23242;SDS011;11790;49.578;11.214;2022-07-18T12:08:28;0.98;;;0.70;;
23242;SDS011;11790;49.578;11.214;2022-07-18T12:13:45;1.85;;;0.57;;
23242;SDS011;11790;49.578;11.214;2022-07-18T12:18:50;0.93;;;0.55;;
23242;SDS011;11790;49.578;11.214;2022-07-18T12:23:50;0.70;;;0.50;;
23242;SDS011;11790;49.578;11.214;2022-07-18T12:29:02;0.85;;;0.70;;
23242;SDS011;11790;49.578;11.214;2022-07-18T12:39:09;0.50;;;0.50;;
23242;SDS011;11790;49.578;11.214;2022-07-18T12:44:13;0.98;;;0.60;;
23242;SDS011;11790;49.578;11.214;2022-07-18T12:49:13;0.45;;;0.43;;
23242;SDS011;11790;49.578;11.214;2022-07-18T12:54:13;0.63;;;0.60;;
23242;SDS011;11790;49.578;11.214;2022-07-18T12:59:14;0.85;;;0.60;;
23242;SDS011;11790;49.578;11.214;2022-07-18T13:04:14;1.17;;;0.63;;
23242;SDS011;11790;49.578;11.214;2022-07-18T13:09:14;0.50;;;0.50;;
23242;SDS011;11790;49.578;11.214;2022-07-18T13:14:15;1.25;;;0.60;;
23242;SDS011;11790;49.578;11.214;2022-07-18T13:19:16;0.80;;;0.63;;
23242;SDS011;11790;49.578;11.214;2022-07-18T13:24:16;1.98;;;0.50;;
23242;SDS011;11790;49.578;11.214;2022-07-18T13:29:17;2.08;;;0.55;;
23242;SDS011;11790;49.578;11.214;2022-07-18T13:34:17;2.38;;;0.60;;
23242;SDS011;11790;49.578;11.214;2022-07-18T13:39:18;0.63;;;0.50;;
23242;SDS011;11790;49.578;11.214;2022-07-18T13:44:18;0.60;;;0.57;;
23242;SDS011;11790;49.578;11.214;2022-07-18T13:49:18;0.75;;;0.40;;
23242;SDS011;11790;49.578;11.214;2022-07-18T13:54:19;1.52;;;0.60;;
23242;SDS011;11790;49.578;11.214;2022-07-18T13:59:19;0.40;;;0.40;;
23242;SDS011;11790;49.578;11.214;2022-07-18T14:04:19;0.77;;;0.55;;
23242;SDS011;11790;49.578;11.214;2022-07-18T14:09:19;1.10;;;0.47;;
23242;SDS011;11790;49.578;11.214;2022-07-18T14:14:20;0.93;;;0.43;;
23242;SDS011;11790;49.578;11.214;2022-07-18T14:19:20;1.25;;;0.60;;
23242;SDS011;11790;49.578;11.214;2022-07-18T14:24:20;0.98;;;0.60;;
23242;SDS011;11790;49.578;11.214;2022-07-18T14:29:20;1.55;;;0.60;;
23242;SDS011;11790;49.578;11.214;2022-07-18T14:34:21;2.55;;;0.60;;
23242;SDS011;11790;49.578;11.214;2022-07-18T14:39:21;1.17;;;0.60;;
23242;SDS011;11790;49.578;11.214;2022-07-18T14:44:21;1.00;;;0.60;;
23242;SDS011;11790;49.578;11.214;2022-07-18T14:49:21;0.55;;;0.50;;
23242;SDS011;11790;49.578;11.214;2022-07-18T14:54:23;0.95;;;0.63;;
23242;SDS011;11790;49.578;11.214;2022-07-18T14:59:23;2.72;;;0.70;;
23242;SDS011;11790;49.578;11.214;2022-07-18T15:04:26;3.43;;;0.60;;
23242;SDS011;11790;49.578;11.214;2022-07-18T15:09:26;1.48;;;0.70;;
23242;SDS011;11790;49.578;11.214;2022-07-18T15:14:27;0.77;;;0.45;;
23242;SDS011;11790;49.578;11.214;2022-07-18T15:19:27;1.48;;;0.60;;
23242;SDS011;11790;49.578;11.214;2022-07-18T15:24:27;1.52;;;0.75;;
23242;SDS011;11790;49.578;11.214;2022-07-18T15:29:27;0.73;;;0.55;;
23242;SDS011;11790;49.578;11.214;2022-07-18T15:34:28;0.53;;;0.47;;
23242;SDS011;11790;49.578;11.214;2022-07-18T15:39:28;2.25;;;0.60;;
23242;SDS011;11790;49.578;11.214;2022-07-18T15:44:28;4.72;;;0.90;;
23242;SDS011;11790;49.578;11.214;2022-07-18T15:49:28;0.90;;;0.70;;
23242;SDS011;11790;49.578;11.214;2022-07-18T15:54:29;1.23;;;0.40;;
23242;SDS011;11790;49.578;11.214;2022-07-18T15:59:29;1.40;;;0.53;;
23242;SDS011;11790;49.578;11.214;2022-07-18T16:04:29;1.67;;;0.70;;
23242;SDS011;11790;49.578;11.214;2022-07-18T16:09:30;0.93;;;0.70;;
23242;SDS011;11790;49.578;11.214;2022-07-18T16:14:30;0.97;;;0.60;;
23242;SDS011;11790;49.578;11.214;2022-07-18T16:19:30;2.95;;;0.60;;
23242;SDS011;11790;49.578;11.214;2022-07-18T16:24:30;0.60;;;0.47;;
23242;SDS011;11790;49.578;11.214;2022-07-18T16:29:31;0.63;;;0.50;;
23242;SDS011;11790;49.578;11.214;2022-07-18T16:34:31;1.58;;;0.50;;
23242;SDS011;11790;49.578;11.214;2022-07-18T16:39:31;1.58;;;0.60;;
23242;SDS011;11790;49.578;11.214;2022-07-18T16:44:32;1.88;;;0.55;;
23242;SDS011;11790;49.578;11.214;2022-07-18T16:49:32;1.90;;;0.70;;
23242;SDS011;11790;49.578;11.214;2022-07-18T16:54:32;1.35;;;0.65;;
23242;SDS011;11790;49.578;11.214;2022-07-18T16:59:33;3.53;;;0.80;;
23242;SDS011;11790;49.578;11.214;2022-07-18T17:04:33;1.40;;;0.80;;
23242;SDS011;11790;49.578;11.214;2022-07-18T17:09:34;2.13;;;0.70;;
23242;SDS011;11790;49.578;11.214;2022-07-18T17:14:34;1.60;;;0.90;;
23242;SDS011;11790;49.578;11.214;2022-07-18T17:19:34;2.50;;;0.90;;
23242;SDS011;11790;49.578;11.214;2022-07-18T17:24:34;5.40;;;0.80;;
23242;SDS011;11790;49.578;11.214;2022-07-18T17:29:35;1.92;;;0.90;;
23242;SDS011;11790;49.578;11.214;2022-07-18T17:34:36;3.63;;;0.80;;
23242;SDS011;11790;49.578;11.214;2022-07-18T17:39:36;1.98;;;0.90;;
23242;SDS011;11790;49.578;11.214;2022-07-18T17:44:37;3.27;;;1.40;;
23242;SDS011;11790;49.578;11.214;2022-07-18T17:49:37;4.33;;;1.10;;
23242;SDS011;11790;49.578;11.214;2022-07-18T17:54:38;3.67;;;1.03;;
23242;SDS011;11790;49.578;11.214;2022-07-18T17:59:38;13.20;;;1.25;;
23242;SDS011;11790;49.578;11.214;2022-07-18T18:04:38;3.30;;;1.30;;
23242;SDS011;11790;49.578;11.214;2022-07-18T18:09:39;17.35;;;1.20;;
23242;SDS011;11790;49.578;11.214;2022-07-18T18:14:39;7.25;;;1.30;;
23242;SDS011;11790;49.578;11.214;2022-07-18T18:19:39;2.90;;;1.02;;
23242;SDS011;11790;49.578;11.214;2022-07-18T18:24:40;4.43;;;1.00;;
23242;SDS011;11790;49.578;11.214;2022-07-18T18:29:40;1.08;;;0.75;;
23242;SDS011;11790;49.578;11.214;2022-07-18T18:34:42;4.15;;;0.90;;
23242;SDS011;11790;49.578;11.214;2022-07-18T18:39:43;1.23;;;0.80;;
23242;SDS011;11790;49.578;11.214;2022-07-18T18:44:43;1.63;;;0.80;;
23242;SDS011;11790;49.578;11.214;2022-07-18T18:49:43;3.08;;;0.88;;
23242;SDS011;11790;49.578;11.214;2022-07-18T18:54:43;2.95;;;1.10;;
23242;SDS011;11790;49.578;11.214;2022-07-18T18:59:44;2.58;;;0.93;;
23242;SDS011;11790;49.578;11.214;2022-07-18T19:04:44;4.10;;;1.20;;
23242;SDS011;11790;49.578;11.214;2022-07-18T19:09:44;3.92;;;1.10;;
23242;SDS011;11790;49.578;11.214;2022-07-18T19:14:44;4.95;;;1.17;;
23242;SDS011;11790;49.578;11.214;2022-07-18T19:19:45;2.15;;;1.10;;
23242;SDS011;11790;49.578;11.214;2022-07-18T19:24:45;7.55;;;1.40;;
23242;SDS011;11790;49.578;11.214;2022-07-18T19:29:45;2.70;;;1.40;;
23242;SDS011;11790;49.578;11.214;2022-07-18T19:34:46;2.37;;;1.20;;
23242;SDS011;11790;49.578;11.214;2022-07-18T19:39:46;2.35;;;1.33;;
23242;SDS011;11790;49.578;11.214;2022-07-18T19:44:47;4.07;;;1.60;;
23242;SDS011;11790;49.578;11.214;2022-07-18T19:49:47;3.83;;;1.50;;
23242;SDS011;11790;49.578;11.214;2022-07-18T19:54:47;4.85;;;1.48;;
23242;SDS011;11790;49.578;11.214;2022-07-18T19:59:47;3.00;;;1.40;;
23242;SDS011;11790;49.578;11.214;2022-07-18T20:04:48;6.18;;;1.88;;
23242;SDS011;11790;49.578;11.214;2022-07-18T20:09:48;1.45;;;1.20;;
23242;SDS011;11790;49.578;11.214;2022-07-18T20:14:48;2.47;;;1.20;;
23242;SDS011;11790;49.578;11.214;2022-07-18T20:19:48;3.10;;;1.30;;
23242;SDS011;11790;49.578;11.214;2022-07-18T20:24:49;2.73;;;1.40;;
23242;SDS011;11790;49.578;11.214;2022-07-18T20:29:49;5.40;;;1.80;;
23242;SDS011;11790;49.578;11.214;2022-07-18T20:34:49;2.45;;;1.48;;
23242;SDS011;11790;49.578;11.214;2022-07-18T20:39:50;2.03;;;1.23;;
23242;SDS011;11790;49.578;11.214;2022-07-18T20:44:50;1.77;;;1.20;;
23242;SDS011;11790;49.578;11.214;2022-07-18T20:49:50;2.65;;;1.30;;
23242;SDS011;11790;49.578;11.214;2022-07-18T20:54:50;5.13;;;1.13;;
23242;SDS011;11790;49.578;11.214;2022-07-18T20:59:51;2.25;;;1.13;;
23242;SDS011;11790;49.578;11.214;2022-07-18T21:04:51;1.85;;;1.27;;
23242;SDS011;11790;49.578;11.214;2022-07-18T21:09:51;3.00;;;1.48;;
23242;SDS011;11790;49.578;11.214;2022-07-18T21:14:51;2.13;;;1.50;;
23242;SDS011;11790;49.578;11.214;2022-07-18T21:20:08;1.45;;;1.10;;
23242;SDS011;11790;49.578;11.214;2022-07-18T21:25:08;3.63;;;1.33;;
23242;SDS011;11790;49.578;11.214;2022-07-18T21:30:09;2.97;;;1.30;;
23242;SDS011;11790;49.578;11.214;2022-07-18T21:35:10;3.38;;;1.23;;
23242;SDS011;11790;49.578;11.214;2022-07-18T21:40:11;6.47;;;1.67;;
23242;SDS011;11790;49.578;11.214;2022-07-18T21:45:12;1.88;;;1.20;;
23242;SDS011;11790;49.578;11.214;2022-07-18T21:50:12;2.78;;;1.45;;
23242;SDS011;11790;49.578;11.214;2022-07-18T21:55:12;2.80;;;1.73;;
23242;SDS011;11790;49.578;11.214;2022-07-18T22:00:13;1.98;;;1.45;;
23242;SDS011;11790;49.578;11.214;2022-07-18T22:05:14;2.28;;;1.50;;
23242;SDS011;11790;49.578;11.214;2022-07-18T22:10:14;2.05;;;1.50;;
23242;SDS011;11790;49.578;11.214;2022-07-18T22:15:15;2.08;;;1.50;;
23242;SDS011;11790;49.578;11.214;2022-07-18T22:20:16;2.45;;;1.80;;
23242;SDS011;11790;49.578;11.214;2022-07-18T22:25:16;3.00;;;1.60;;
23242;SDS011;11790;49.578;11.214;2022-07-18T22:30:16;2.13;;;1.43;;
23242;SDS011;11790;49.578;11.214;2022-07-18T22:35:17;4.33;;;1.57;;
23242;SDS011;11790;49.578;11.214;2022-07-18T22:40:17;9.18;;;2.53;;
23242;SDS011;11790;49.578;11.214;2022-07-18T22:45:17;2.25;;;1.60;;
23242;SDS011;11790;49.578;11.214;2022-07-18T22:50:18;3.60;;;1.90;;
23242;SDS011;11790;49.578;11.214;2022-07-18T22:55:18;3.17;;;1.70;;
23242;SDS011;11790;49.578;11.214;2022-07-18T23:00:18;2.78;;;1.65;;
23242;SDS011;11790;49.578;11.214;2022-07-18T23:05:18;2.95;;;1.83;;
23242;SDS011;11790;49.578;11.214;2022-07-18T23:10:29;1.92;;;1.52;;
23242;SDS011;11790;49.578;11.214;2022-07-18T23:15:30;2.53;;;1.88;;
23242;SDS011;11790;49.578;11.214;2022-07-18T23:20:30;2.40;;;1.63;;
23242;SDS011;11790;49.578;11.214;2022-07-18T23:25:31;3.90;;;1.70;;
23242;SDS011;11790;49.578;11.214;2022-07-18T23:30:31;3.75;;;2.22;;
23242;SDS011;11790;49.578;11.214;2022-07-18T23:35:31;3.72;;;1.85;;
23242;SDS011;11790;49.578;11.214;2022-07-18T23:40:32;4.20;;;1.90;;
23242;SDS011;11790;49.578;11.214;2022-07-18T23:45:32;2.75;;;1.90;;
23242;SDS011;11790;49.578;11.214;2022-07-18T23:50:32;2.33;;;1.88;;
23242;SDS011;11790;49.578;11.214;2022-07-18T23:55:33;2.30;;;1.90;;
